sensor_id;sensor_type;location;lat;lon;timestamp;temperature;humidity
17452;DHT22;8843;48.838;9.324;2023-10-31T00:00:10;13.90;90.30
17452;DHT22;8843;48.838;9.324;2023-10-31T00:02:37;13.90;90.40
17452;DHT22;8843;48.838;9.324;2023-10-31T00:05:05;13.90;90.70
17452;DHT22;8843;48.838;9.324;2023-10-31T00:07:32;13.90;90.20
17452;DHT22;8843;48.838;9.324;2023-10-31T00:09:58;13.90;90.20
17452;DHT22;8843;48.838;9.324;2023-10-31T00:12:25;13.90;90.20
17452;DHT22;8843;48.838;9.324;2023-10-31T00:14:52;13.90;90.20
17452;DHT22;8843;48.838;9.324;2023-10-31T00:17:21;13.90;90.10
17452;DHT22;8843;48.838;9.324;2023-10-31T00:19:47;13.90;90.10
17452;DHT22;8843;48.838;9.324;2023-10-31T00:22:14;13.90;90.10
17452;DHT22;8843;48.838;9.324;2023-10-31T00:24:41;13.90;90.40
17452;DHT22;8843;48.838;9.324;2023-10-31T00:27:08;13.90;90.50
17452;DHT22;8843;48.838;9.324;2023-10-31T00:29:35;13.90;90.10
17452;DHT22;8843;48.838;9.324;2023-10-31T00:32:03;13.90;90.20
17452;DHT22;8843;48.838;9.324;2023-10-31T00:34:31;13.90;90.20
17452;DHT22;8843;48.838;9.324;2023-10-31T00:36:58;13.90;90.20
17452;DHT22;8843;48.838;9.324;2023-10-31T00:39:25;13.90;90.20
17452;DHT22;8843;48.838;9.324;2023-10-31T00:41:52;13.90;90.50
17452;DHT22;8843;48.838;9.324;2023-10-31T00:44:18;13.90;90.20
17452;DHT22;8843;48.838;9.324;2023-10-31T00:46:45;13.80;90.20
17452;DHT22;8843;48.838;9.324;2023-10-31T00:49:12;13.90;90.20
17452;DHT22;8843;48.838;9.324;2023-10-31T00:51:40;13.90;90.20
17452;DHT22;8843;48.838;9.324;2023-10-31T00:54:07;13.90;90.20
17452;DHT22;8843;48.838;9.324;2023-10-31T00:56:34;13.90;90.20
17452;DHT22;8843;48.838;9.324;2023-10-31T00:59:01;13.90;90.20
17452;DHT22;8843;48.838;9.324;2023-10-31T01:01:28;13.90;90.20
17452;DHT22;8843;48.838;9.324;2023-10-31T01:03:55;13.90;90.20
17452;DHT22;8843;48.838;9.324;2023-10-31T01:06:22;13.90;90.10
17452;DHT22;8843;48.838;9.324;2023-10-31T01:08:50;13.90;90.50
17452;DHT22;8843;48.838;9.324;2023-10-31T01:11:17;13.90;90.10
17452;DHT22;8843;48.838;9.324;2023-10-31T01:13:43;13.90;90.10
17452;DHT22;8843;48.838;9.324;2023-10-31T01:16:11;13.90;90.10
17452;DHT22;8843;48.838;9.324;2023-10-31T01:18:38;13.90;90.10
17452;DHT22;8843;48.838;9.324;2023-10-31T01:21:04;13.90;90.10
17452;DHT22;8843;48.838;9.324;2023-10-31T01:23:31;13.90;90.10
17452;DHT22;8843;48.838;9.324;2023-10-31T01:25:59;13.90;90.20
17452;DHT22;8843;48.838;9.324;2023-10-31T01:28:26;13.90;90.30
17452;DHT22;8843;48.838;9.324;2023-10-31T01:30:53;13.80;90.10
17452;DHT22;8843;48.838;9.324;2023-10-31T01:33:19;13.80;90.20
17452;DHT22;8843;48.838;9.324;2023-10-31T01:35:46;13.90;90.20
17452;DHT22;8843;48.838;9.324;2023-10-31T01:38:13;13.80;90.10
17452;DHT22;8843;48.838;9.324;2023-10-31T01:40:40;13.80;90.10
17452;DHT22;8843;48.838;9.324;2023-10-31T01:43:09;13.80;90.10
17452;DHT22;8843;48.838;9.324;2023-10-31T01:45:36;13.80;90.10
17452;DHT22;8843;48.838;9.324;2023-10-31T01:48:03;13.80;90.10
17452;DHT22;8843;48.838;9.324;2023-10-31T01:50:30;13.80;90.00
17452;DHT22;8843;48.838;9.324;2023-10-31T01:52:57;13.80;90.00
17452;DHT22;8843;48.838;9.324;2023-10-31T01:55:24;13.80;90.00
17452;DHT22;8843;48.838;9.324;2023-10-31T01:57:53;13.80;90.00
17452;DHT22;8843;48.838;9.324;2023-10-31T02:00:22;13.90;90.00
17452;DHT22;8843;48.838;9.324;2023-10-31T02:02:52;13.80;90.00
17452;DHT22;8843;48.838;9.324;2023-10-31T02:05:19;13.80;90.00
17452;DHT22;8843;48.838;9.324;2023-10-31T02:07:46;13.80;89.90
17452;DHT22;8843;48.838;9.324;2023-10-31T02:10:13;13.90;90.00
17452;DHT22;8843;48.838;9.324;2023-10-31T02:12:40;13.80;89.80
17452;DHT22;8843;48.838;9.324;2023-10-31T02:15:08;13.80;89.80
17452;DHT22;8843;48.838;9.324;2023-10-31T02:17:36;13.90;89.90
17452;DHT22;8843;48.838;9.324;2023-10-31T02:20:04;13.80;89.80
17452;DHT22;8843;48.838;9.324;2023-10-31T02:22:32;13.80;89.80
17452;DHT22;8843;48.838;9.324;2023-10-31T02:24:59;13.80;89.80
17452;DHT22;8843;48.838;9.324;2023-10-31T02:27:26;13.80;89.80
17452;DHT22;8843;48.838;9.324;2023-10-31T02:29:53;13.80;89.80
17452;DHT22;8843;48.838;9.324;2023-10-31T02:32:20;13.80;89.70
17452;DHT22;8843;48.838;9.324;2023-10-31T02:34:47;13.80;89.60
17452;DHT22;8843;48.838;9.324;2023-10-31T02:37:14;13.80;89.70
17452;DHT22;8843;48.838;9.324;2023-10-31T02:39:42;13.80;89.70
17452;DHT22;8843;48.838;9.324;2023-10-31T02:42:09;13.80;89.70
17452;DHT22;8843;48.838;9.324;2023-10-31T02:44:36;13.80;89.60
17452;DHT22;8843;48.838;9.324;2023-10-31T02:47:04;13.80;89.60
17452;DHT22;8843;48.838;9.324;2023-10-31T02:49:31;13.80;89.60
17452;DHT22;8843;48.838;9.324;2023-10-31T02:51:57;13.80;89.60
17452;DHT22;8843;48.838;9.324;2023-10-31T02:54:24;13.80;89.60
17452;DHT22;8843;48.838;9.324;2023-10-31T02:56:52;13.80;89.60
17452;DHT22;8843;48.838;9.324;2023-10-31T02:59:19;13.80;90.10
17452;DHT22;8843;48.838;9.324;2023-10-31T03:01:46;13.80;89.60
17452;DHT22;8843;48.838;9.324;2023-10-31T03:04:13;13.80;89.50
17452;DHT22;8843;48.838;9.324;2023-10-31T03:06:40;13.80;89.40
17452;DHT22;8843;48.838;9.324;2023-10-31T03:09:07;13.80;89.50
17452;DHT22;8843;48.838;9.324;2023-10-31T03:11:34;13.80;89.40
17452;DHT22;8843;48.838;9.324;2023-10-31T03:14:02;13.80;89.40
17452;DHT22;8843;48.838;9.324;2023-10-31T03:16:29;13.80;89.40
17452;DHT22;8843;48.838;9.324;2023-10-31T03:18:56;13.80;89.40
17452;DHT22;8843;48.838;9.324;2023-10-31T03:21:23;13.80;89.30
17452;DHT22;8843;48.838;9.324;2023-10-31T03:23:50;13.80;89.20
17452;DHT22;8843;48.838;9.324;2023-10-31T03:26:19;13.80;89.20
17452;DHT22;8843;48.838;9.324;2023-10-31T03:28:46;13.80;89.20
17452;DHT22;8843;48.838;9.324;2023-10-31T03:31:15;13.80;89.20
17452;DHT22;8843;48.838;9.324;2023-10-31T03:33:42;13.80;89.10
17452;DHT22;8843;48.838;9.324;2023-10-31T03:36:09;13.80;89.10
17452;DHT22;8843;48.838;9.324;2023-10-31T03:38:36;13.80;89.10
17452;DHT22;8843;48.838;9.324;2023-10-31T03:41:03;13.80;89.10
17452;DHT22;8843;48.838;9.324;2023-10-31T03:43:30;13.80;89.10
17452;DHT22;8843;48.838;9.324;2023-10-31T03:45:57;13.80;89.00
17452;DHT22;8843;48.838;9.324;2023-10-31T03:48:26;13.80;89.00
17452;DHT22;8843;48.838;9.324;2023-10-31T03:50:53;13.80;89.20
17452;DHT22;8843;48.838;9.324;2023-10-31T03:53:20;13.80;89.00
17452;DHT22;8843;48.838;9.324;2023-10-31T03:55:47;13.80;88.90
17452;DHT22;8843;48.838;9.324;2023-10-31T03:58:13;13.80;89.60
17452;DHT22;8843;48.838;9.324;2023-10-31T04:00:40;13.80;88.90
17452;DHT22;8843;48.838;9.324;2023-10-31T04:03:07;13.80;88.90
17452;DHT22;8843;48.838;9.324;2023-10-31T04:05:35;13.80;88.90
17452;DHT22;8843;48.838;9.324;2023-10-31T04:08:03;13.80;88.90
17452;DHT22;8843;48.838;9.324;2023-10-31T04:10:30;13.70;88.80
17452;DHT22;8843;48.838;9.324;2023-10-31T04:12:57;13.80;88.90
17452;DHT22;8843;48.838;9.324;2023-10-31T04:15:24;13.70;88.80
17452;DHT22;8843;48.838;9.324;2023-10-31T04:17:50;13.80;88.90
17452;DHT22;8843;48.838;9.324;2023-10-31T04:20:17;13.80;88.90
17452;DHT22;8843;48.838;9.324;2023-10-31T04:22:45;13.70;88.70
17452;DHT22;8843;48.838;9.324;2023-10-31T04:25:12;13.70;88.70
17452;DHT22;8843;48.838;9.324;2023-10-31T04:27:39;13.70;88.70
17452;DHT22;8843;48.838;9.324;2023-10-31T04:30:07;13.70;89.40
17452;DHT22;8843;48.838;9.324;2023-10-31T04:32:34;13.70;88.60
17452;DHT22;8843;48.838;9.324;2023-10-31T04:35:01;13.70;88.70
17452;DHT22;8843;48.838;9.324;2023-10-31T04:37:28;13.70;88.70
17452;DHT22;8843;48.838;9.324;2023-10-31T04:39:56;13.70;88.70
17452;DHT22;8843;48.838;9.324;2023-10-31T04:42:23;13.70;88.60
17452;DHT22;8843;48.838;9.324;2023-10-31T04:44:49;13.80;88.70
17452;DHT22;8843;48.838;9.324;2023-10-31T04:47:16;13.70;88.60
17452;DHT22;8843;48.838;9.324;2023-10-31T04:49:43;13.70;88.60
17452;DHT22;8843;48.838;9.324;2023-10-31T04:52:10;13.70;88.60
17452;DHT22;8843;48.838;9.324;2023-10-31T04:54:37;13.70;88.60
17452;DHT22;8843;48.838;9.324;2023-10-31T04:57:05;13.70;88.60
17452;DHT22;8843;48.838;9.324;2023-10-31T04:59:32;13.70;88.60
17452;DHT22;8843;48.838;9.324;2023-10-31T05:01:59;13.70;88.60
17452;DHT22;8843;48.838;9.324;2023-10-31T05:04:26;13.70;88.60
17452;DHT22;8843;48.838;9.324;2023-10-31T05:06:53;13.70;88.60
17452;DHT22;8843;48.838;9.324;2023-10-31T05:09:20;13.60;88.70
17452;DHT22;8843;48.838;9.324;2023-10-31T05:11:48;14.10;90.40
17452;DHT22;8843;48.838;9.324;2023-10-31T05:14:17;14.00;88.90
17452;DHT22;8843;48.838;9.324;2023-10-31T05:16:43;14.00;88.40
17452;DHT22;8843;48.838;9.324;2023-10-31T05:19:11;13.90;88.40
17452;DHT22;8843;48.838;9.324;2023-10-31T05:21:38;13.80;88.50
17452;DHT22;8843;48.838;9.324;2023-10-31T05:24:06;13.80;88.70
17452;DHT22;8843;48.838;9.324;2023-10-31T05:26:33;13.70;88.70
17452;DHT22;8843;48.838;9.324;2023-10-31T05:29:00;13.70;88.70
17452;DHT22;8843;48.838;9.324;2023-10-31T05:31:29;13.70;88.70
17452;DHT22;8843;48.838;9.324;2023-10-31T05:33:55;13.70;88.60
17452;DHT22;8843;48.838;9.324;2023-10-31T05:36:23;13.70;88.60
17452;DHT22;8843;48.838;9.324;2023-10-31T05:38:51;13.70;88.60
17452;DHT22;8843;48.838;9.324;2023-10-31T05:41:17;13.70;88.50
17452;DHT22;8843;48.838;9.324;2023-10-31T05:43:44;13.70;89.20
17452;DHT22;8843;48.838;9.324;2023-10-31T05:46:11;13.70;88.40
17452;DHT22;8843;48.838;9.324;2023-10-31T05:48:43;13.70;88.40
17452;DHT22;8843;48.838;9.324;2023-10-31T05:51:13;13.80;90.70
17452;DHT22;8843;48.838;9.324;2023-10-31T05:53:41;13.90;89.60
17452;DHT22;8843;48.838;9.324;2023-10-31T05:56:09;13.80;88.30
17452;DHT22;8843;48.838;9.324;2023-10-31T05:58:36;13.70;88.20
17452;DHT22;8843;48.838;9.324;2023-10-31T06:01:03;13.70;88.40
17452;DHT22;8843;48.838;9.324;2023-10-31T06:03:30;13.70;88.50
17452;DHT22;8843;48.838;9.324;2023-10-31T06:05:59;13.70;88.50
17452;DHT22;8843;48.838;9.324;2023-10-31T06:08:26;13.70;88.40
17452;DHT22;8843;48.838;9.324;2023-10-31T06:10:54;13.70;88.40
17452;DHT22;8843;48.838;9.324;2023-10-31T06:13:21;13.60;88.30
17452;DHT22;8843;48.838;9.324;2023-10-31T06:15:48;13.60;88.30
17452;DHT22;8843;48.838;9.324;2023-10-31T06:18:20;13.60;88.30
17452;DHT22;8843;48.838;9.324;2023-10-31T06:21:05;13.40;87.10
17452;DHT22;8843;48.838;9.324;2023-10-31T06:23:36;13.30;87.70
17452;DHT22;8843;48.838;9.324;2023-10-31T06:26:09;13.20;87.00
17452;DHT22;8843;48.838;9.324;2023-10-31T06:28:37;13.20;86.80
17452;DHT22;8843;48.838;9.324;2023-10-31T06:31:05;13.30;87.00
17452;DHT22;8843;48.838;9.324;2023-10-31T06:33:32;13.30;86.70
17452;DHT22;8843;48.838;9.324;2023-10-31T06:35:59;13.10;86.80
17452;DHT22;8843;48.838;9.324;2023-10-31T06:38:28;13.30;90.60
17452;DHT22;8843;48.838;9.324;2023-10-31T06:40:55;13.80;89.40
17452;DHT22;8843;48.838;9.324;2023-10-31T06:43:22;13.80;87.60
17452;DHT22;8843;48.838;9.324;2023-10-31T06:45:49;13.50;86.80
17452;DHT22;8843;48.838;9.324;2023-10-31T06:48:16;13.40;87.20
17452;DHT22;8843;48.838;9.324;2023-10-31T06:50:43;13.40;87.00
17452;DHT22;8843;48.838;9.324;2023-10-31T06:53:10;13.40;86.80
17452;DHT22;8843;48.838;9.324;2023-10-31T06:55:38;13.50;86.90
17452;DHT22;8843;48.838;9.324;2023-10-31T06:58:05;13.50;87.40
17452;DHT22;8843;48.838;9.324;2023-10-31T07:00:32;13.50;87.10
17452;DHT22;8843;48.838;9.324;2023-10-31T07:02:59;13.50;87.10
17452;DHT22;8843;48.838;9.324;2023-10-31T07:05:30;13.50;87.30
17452;DHT22;8843;48.838;9.324;2023-10-31T07:07:57;13.50;87.20
17452;DHT22;8843;48.838;9.324;2023-10-31T07:10:24;13.50;87.60
17452;DHT22;8843;48.838;9.324;2023-10-31T07:12:52;13.50;87.20
17452;DHT22;8843;48.838;9.324;2023-10-31T07:15:19;13.50;88.00
17452;DHT22;8843;48.838;9.324;2023-10-31T07:17:46;13.50;87.30
17452;DHT22;8843;48.838;9.324;2023-10-31T07:20:13;13.50;87.30
17452;DHT22;8843;48.838;9.324;2023-10-31T07:22:40;13.50;87.40
17452;DHT22;8843;48.838;9.324;2023-10-31T07:25:08;13.50;87.30
17452;DHT22;8843;48.838;9.324;2023-10-31T07:27:35;13.50;87.30
17452;DHT22;8843;48.838;9.324;2023-10-31T07:30:05;13.50;87.50
17452;DHT22;8843;48.838;9.324;2023-10-31T07:32:32;13.50;87.30
17452;DHT22;8843;48.838;9.324;2023-10-31T07:34:59;13.40;87.40
17452;DHT22;8843;48.838;9.324;2023-10-31T07:37:26;13.50;87.50
17452;DHT22;8843;48.838;9.324;2023-10-31T07:39:53;13.50;87.40
17452;DHT22;8843;48.838;9.324;2023-10-31T07:42:19;13.30;85.80
17452;DHT22;8843;48.838;9.324;2023-10-31T07:44:46;13.50;89.20
17452;DHT22;8843;48.838;9.324;2023-10-31T07:47:14;13.60;87.70
17452;DHT22;8843;48.838;9.324;2023-10-31T07:49:41;13.20;87.10
17452;DHT22;8843;48.838;9.324;2023-10-31T07:52:08;12.90;87.40
17452;DHT22;8843;48.838;9.324;2023-10-31T07:54:37;12.70;88.70
17452;DHT22;8843;48.838;9.324;2023-10-31T07:57:05;12.60;88.50
17452;DHT22;8843;48.838;9.324;2023-10-31T07:59:33;12.60;89.00
17452;DHT22;8843;48.838;9.324;2023-10-31T08:02:00;12.70;88.50
17452;DHT22;8843;48.838;9.324;2023-10-31T08:04:28;12.60;88.80
17452;DHT22;8843;48.838;9.324;2023-10-31T08:06:56;13.00;88.60
17452;DHT22;8843;48.838;9.324;2023-10-31T08:09:23;13.10;88.70
17452;DHT22;8843;48.838;9.324;2023-10-31T08:11:50;13.20;87.50
17452;DHT22;8843;48.838;9.324;2023-10-31T08:14:16;13.30;87.30
17452;DHT22;8843;48.838;9.324;2023-10-31T08:16:44;13.30;87.30
17452;DHT22;8843;48.838;9.324;2023-10-31T08:19:11;13.30;87.10
17452;DHT22;8843;48.838;9.324;2023-10-31T08:21:39;13.30;87.00
17452;DHT22;8843;48.838;9.324;2023-10-31T08:24:07;13.30;87.60
17452;DHT22;8843;48.838;9.324;2023-10-31T08:26:34;13.40;87.20
17452;DHT22;8843;48.838;9.324;2023-10-31T08:29:01;13.40;87.10
17452;DHT22;8843;48.838;9.324;2023-10-31T08:31:28;13.40;87.00
17452;DHT22;8843;48.838;9.324;2023-10-31T08:33:55;13.40;87.10
17452;DHT22;8843;48.838;9.324;2023-10-31T08:36:22;13.40;87.10
17452;DHT22;8843;48.838;9.324;2023-10-31T08:38:50;13.40;87.90
17452;DHT22;8843;48.838;9.324;2023-10-31T08:41:17;13.40;87.10
17452;DHT22;8843;48.838;9.324;2023-10-31T08:43:45;13.40;87.90
17452;DHT22;8843;48.838;9.324;2023-10-31T08:46:12;13.40;87.20
17452;DHT22;8843;48.838;9.324;2023-10-31T08:48:39;13.40;87.60
17452;DHT22;8843;48.838;9.324;2023-10-31T08:51:06;13.40;87.30
17452;DHT22;8843;48.838;9.324;2023-10-31T08:53:33;13.40;87.40
17452;DHT22;8843;48.838;9.324;2023-10-31T08:56:01;13.40;88.20
17452;DHT22;8843;48.838;9.324;2023-10-31T08:58:28;13.40;87.50
17452;DHT22;8843;48.838;9.324;2023-10-31T09:00:55;13.40;87.40
17452;DHT22;8843;48.838;9.324;2023-10-31T09:03:22;13.40;87.60
17452;DHT22;8843;48.838;9.324;2023-10-31T09:05:49;13.40;87.60
17452;DHT22;8843;48.838;9.324;2023-10-31T09:08:16;13.40;87.40
17452;DHT22;8843;48.838;9.324;2023-10-31T09:10:44;13.40;87.40
17452;DHT22;8843;48.838;9.324;2023-10-31T09:13:13;13.40;87.60
17452;DHT22;8843;48.838;9.324;2023-10-31T09:15:40;13.40;87.50
17452;DHT22;8843;48.838;9.324;2023-10-31T09:18:07;13.40;88.10
17452;DHT22;8843;48.838;9.324;2023-10-31T09:20:34;13.40;87.70
17452;DHT22;8843;48.838;9.324;2023-10-31T09:23:01;13.40;87.50
17452;DHT22;8843;48.838;9.324;2023-10-31T09:25:28;13.40;87.50
17452;DHT22;8843;48.838;9.324;2023-10-31T09:27:55;13.40;88.30
17452;DHT22;8843;48.838;9.324;2023-10-31T09:30:25;13.40;87.50
17452;DHT22;8843;48.838;9.324;2023-10-31T09:32:52;13.40;87.70
17452;DHT22;8843;48.838;9.324;2023-10-31T09:35:19;13.40;87.70
17452;DHT22;8843;48.838;9.324;2023-10-31T09:37:46;13.40;87.60
17452;DHT22;8843;48.838;9.324;2023-10-31T09:40:14;13.40;87.70
17452;DHT22;8843;48.838;9.324;2023-10-31T09:42:41;13.40;87.70
17452;DHT22;8843;48.838;9.324;2023-10-31T09:45:09;13.40;87.80
17452;DHT22;8843;48.838;9.324;2023-10-31T09:47:37;13.40;87.90
17452;DHT22;8843;48.838;9.324;2023-10-31T09:50:04;13.40;88.60
17452;DHT22;8843;48.838;9.324;2023-10-31T09:52:32;13.40;88.00
17452;DHT22;8843;48.838;9.324;2023-10-31T09:55:01;13.30;88.10
17452;DHT22;8843;48.838;9.324;2023-10-31T09:57:28;13.40;87.80
17452;DHT22;8843;48.838;9.324;2023-10-31T09:59:55;13.40;87.70
17452;DHT22;8843;48.838;9.324;2023-10-31T10:02:22;13.40;87.90
17452;DHT22;8843;48.838;9.324;2023-10-31T10:04:50;13.40;87.70
17452;DHT22;8843;48.838;9.324;2023-10-31T10:07:18;13.40;87.90
17452;DHT22;8843;48.838;9.324;2023-10-31T10:09:46;13.40;87.80
17452;DHT22;8843;48.838;9.324;2023-10-31T10:12:13;13.40;87.80
17452;DHT22;8843;48.838;9.324;2023-10-31T10:14:40;13.40;87.80
17452;DHT22;8843;48.838;9.324;2023-10-31T10:17:15;13.40;87.80
17452;DHT22;8843;48.838;9.324;2023-10-31T10:19:42;13.40;87.70
17452;DHT22;8843;48.838;9.324;2023-10-31T10:22:11;13.40;87.70
17452;DHT22;8843;48.838;9.324;2023-10-31T10:24:42;13.40;87.60
17452;DHT22;8843;48.838;9.324;2023-10-31T10:27:08;13.40;87.60
17452;DHT22;8843;48.838;9.324;2023-10-31T10:29:36;13.40;87.60
17452;DHT22;8843;48.838;9.324;2023-10-31T10:32:05;13.40;87.60
17452;DHT22;8843;48.838;9.324;2023-10-31T10:34:34;13.40;87.60
17452;DHT22;8843;48.838;9.324;2023-10-31T10:37:05;13.40;88.30
17452;DHT22;8843;48.838;9.324;2023-10-31T10:39:33;13.40;87.50
17452;DHT22;8843;48.838;9.324;2023-10-31T10:42:02;13.40;87.50
17452;DHT22;8843;48.838;9.324;2023-10-31T10:44:36;13.40;87.40
17452;DHT22;8843;48.838;9.324;2023-10-31T10:47:05;13.40;87.50
17452;DHT22;8843;48.838;9.324;2023-10-31T10:49:33;13.40;87.50
17452;DHT22;8843;48.838;9.324;2023-10-31T10:52:08;13.40;87.50
17452;DHT22;8843;48.838;9.324;2023-10-31T10:54:45;13.40;87.60
17452;DHT22;8843;48.838;9.324;2023-10-31T10:57:24;13.40;87.60
17452;DHT22;8843;48.838;9.324;2023-10-31T10:59:56;13.40;87.50
17452;DHT22;8843;48.838;9.324;2023-10-31T11:02:25;13.40;87.60
17452;DHT22;8843;48.838;9.324;2023-10-31T11:04:53;13.40;87.50
17452;DHT22;8843;48.838;9.324;2023-10-31T11:07:21;13.40;87.40
17452;DHT22;8843;48.838;9.324;2023-10-31T11:09:50;13.40;87.50
17452;DHT22;8843;48.838;9.324;2023-10-31T11:12:18;13.40;87.50
17452;DHT22;8843;48.838;9.324;2023-10-31T11:14:48;13.40;88.30
17452;DHT22;8843;48.838;9.324;2023-10-31T11:17:22;13.40;86.70
17452;DHT22;8843;48.838;9.324;2023-10-31T11:19:51;13.40;87.70
17452;DHT22;8843;48.838;9.324;2023-10-31T11:22:19;13.40;87.70
17452;DHT22;8843;48.838;9.324;2023-10-31T11:24:50;13.40;88.20
17452;DHT22;8843;48.838;9.324;2023-10-31T11:27:17;13.40;87.70
17452;DHT22;8843;48.838;9.324;2023-10-31T11:29:44;13.40;87.70
17452;DHT22;8843;48.838;9.324;2023-10-31T11:32:12;13.40;88.30
17452;DHT22;8843;48.838;9.324;2023-10-31T11:34:39;13.40;87.60
17452;DHT22;8843;48.838;9.324;2023-10-31T11:37:23;13.40;87.60
17452;DHT22;8843;48.838;9.324;2023-10-31T11:40:17;13.40;87.70
17452;DHT22;8843;48.838;9.324;2023-10-31T11:42:47;13.40;87.70
17452;DHT22;8843;48.838;9.324;2023-10-31T11:45:26;13.40;87.60
17452;DHT22;8843;48.838;9.324;2023-10-31T11:47:53;13.40;87.60
17452;DHT22;8843;48.838;9.324;2023-10-31T11:50:21;13.40;87.60
17452;DHT22;8843;48.838;9.324;2023-10-31T11:52:59;13.40;87.60
17452;DHT22;8843;48.838;9.324;2023-10-31T11:55:27;13.40;87.60
17452;DHT22;8843;48.838;9.324;2023-10-31T11:57:54;13.40;87.70
17452;DHT22;8843;48.838;9.324;2023-10-31T12:00:22;13.40;87.70
17452;DHT22;8843;48.838;9.324;2023-10-31T12:02:59;13.40;87.60
17452;DHT22;8843;48.838;9.324;2023-10-31T12:05:25;13.40;87.60
17452;DHT22;8843;48.838;9.324;2023-10-31T12:07:54;13.40;87.60
17452;DHT22;8843;48.838;9.324;2023-10-31T12:10:25;13.40;87.60
17452;DHT22;8843;48.838;9.324;2023-10-31T12:12:53;13.40;87.60
17452;DHT22;8843;48.838;9.324;2023-10-31T12:15:20;13.40;87.70
17452;DHT22;8843;48.838;9.324;2023-10-31T12:17:48;13.40;87.60
17452;DHT22;8843;48.838;9.324;2023-10-31T12:20:15;13.50;88.40
17452;DHT22;8843;48.838;9.324;2023-10-31T12:22:42;13.40;87.50
17452;DHT22;8843;48.838;9.324;2023-10-31T12:25:11;13.40;87.50
17452;DHT22;8843;48.838;9.324;2023-10-31T12:27:45;13.40;87.60
17452;DHT22;8843;48.838;9.324;2023-10-31T12:30:15;13.40;87.60
17452;DHT22;8843;48.838;9.324;2023-10-31T12:32:42;13.50;89.40
17452;DHT22;8843;48.838;9.324;2023-10-31T12:35:12;13.60;87.50
17452;DHT22;8843;48.838;9.324;2023-10-31T12:37:44;13.50;87.60
17452;DHT22;8843;48.838;9.324;2023-10-31T12:40:12;13.50;87.20
17452;DHT22;8843;48.838;9.324;2023-10-31T12:42:42;13.40;87.30
17452;DHT22;8843;48.838;9.324;2023-10-31T12:45:10;13.40;87.40
17452;DHT22;8843;48.838;9.324;2023-10-31T12:47:39;13.40;87.40
17452;DHT22;8843;48.838;9.324;2023-10-31T12:50:07;13.40;87.40
17452;DHT22;8843;48.838;9.324;2023-10-31T12:52:48;13.40;87.50
17452;DHT22;8843;48.838;9.324;2023-10-31T12:55:15;13.40;87.60
17452;DHT22;8843;48.838;9.324;2023-10-31T12:57:42;13.40;87.60
17452;DHT22;8843;48.838;9.324;2023-10-31T13:00:13;13.40;87.60
17452;DHT22;8843;48.838;9.324;2023-10-31T13:02:42;13.40;87.60
17452;DHT22;8843;48.838;9.324;2023-10-31T13:05:10;13.40;87.60
17452;DHT22;8843;48.838;9.324;2023-10-31T13:07:39;13.40;88.40
17452;DHT22;8843;48.838;9.324;2023-10-31T13:10:07;13.40;87.60
17452;DHT22;8843;48.838;9.324;2023-10-31T13:12:35;13.40;87.60
17452;DHT22;8843;48.838;9.324;2023-10-31T13:15:02;13.40;87.60
17452;DHT22;8843;48.838;9.324;2023-10-31T13:17:29;13.40;87.80
17452;DHT22;8843;48.838;9.324;2023-10-31T13:19:59;13.40;87.90
17452;DHT22;8843;48.838;9.324;2023-10-31T13:22:26;13.40;88.10
17452;DHT22;8843;48.838;9.324;2023-10-31T13:24:52;13.40;89.20
17452;DHT22;8843;48.838;9.324;2023-10-31T13:27:19;13.40;88.20
17452;DHT22;8843;48.838;9.324;2023-10-31T13:29:46;13.40;89.70
17452;DHT22;8843;48.838;9.324;2023-10-31T13:32:15;13.40;90.00
17452;DHT22;8843;48.838;9.324;2023-10-31T13:34:42;13.40;89.20
17452;DHT22;8843;48.838;9.324;2023-10-31T13:37:11;13.30;88.50
17452;DHT22;8843;48.838;9.324;2023-10-31T13:39:38;13.40;88.40
17452;DHT22;8843;48.838;9.324;2023-10-31T13:42:05;13.40;89.10
17452;DHT22;8843;48.838;9.324;2023-10-31T13:44:32;13.40;88.50
17452;DHT22;8843;48.838;9.324;2023-10-31T13:46:59;13.40;88.40
17452;DHT22;8843;48.838;9.324;2023-10-31T13:49:26;13.40;88.30
17452;DHT22;8843;48.838;9.324;2023-10-31T13:51:53;13.40;88.40
17452;DHT22;8843;48.838;9.324;2023-10-31T13:54:21;13.40;88.40
17452;DHT22;8843;48.838;9.324;2023-10-31T13:56:48;13.40;88.40
17452;DHT22;8843;48.838;9.324;2023-10-31T13:59:15;13.40;88.40
17452;DHT22;8843;48.838;9.324;2023-10-31T14:01:44;13.40;89.10
17452;DHT22;8843;48.838;9.324;2023-10-31T14:04:12;13.40;88.50
17452;DHT22;8843;48.838;9.324;2023-10-31T14:06:40;13.40;88.50
17452;DHT22;8843;48.838;9.324;2023-10-31T14:09:08;13.40;88.50
17452;DHT22;8843;48.838;9.324;2023-10-31T14:11:38;13.40;88.60
17452;DHT22;8843;48.838;9.324;2023-10-31T14:14:05;13.40;88.50
17452;DHT22;8843;48.838;9.324;2023-10-31T14:16:34;13.40;89.30
17452;DHT22;8843;48.838;9.324;2023-10-31T14:19:02;13.40;88.50
17452;DHT22;8843;48.838;9.324;2023-10-31T14:21:29;13.40;89.30
17452;DHT22;8843;48.838;9.324;2023-10-31T14:23:56;13.40;89.30
17452;DHT22;8843;48.838;9.324;2023-10-31T14:26:24;13.40;89.30
17452;DHT22;8843;48.838;9.324;2023-10-31T14:28:52;13.40;88.60
17452;DHT22;8843;48.838;9.324;2023-10-31T14:31:19;13.40;88.70
17452;DHT22;8843;48.838;9.324;2023-10-31T14:33:46;13.40;88.70
17452;DHT22;8843;48.838;9.324;2023-10-31T14:36:13;13.40;88.70
17452;DHT22;8843;48.838;9.324;2023-10-31T14:38:41;13.40;88.70
17452;DHT22;8843;48.838;9.324;2023-10-31T14:41:08;13.40;88.70
17452;DHT22;8843;48.838;9.324;2023-10-31T14:43:35;13.40;88.70
17452;DHT22;8843;48.838;9.324;2023-10-31T14:46:04;13.40;88.70
17452;DHT22;8843;48.838;9.324;2023-10-31T14:48:32;13.40;88.80
17452;DHT22;8843;48.838;9.324;2023-10-31T14:50:59;13.40;88.70
17452;DHT22;8843;48.838;9.324;2023-10-31T14:53:27;13.40;88.80
17452;DHT22;8843;48.838;9.324;2023-10-31T14:55:53;13.40;88.80
17452;DHT22;8843;48.838;9.324;2023-10-31T14:58:20;13.40;88.80
17452;DHT22;8843;48.838;9.324;2023-10-31T15:00:47;13.40;88.80
17452;DHT22;8843;48.838;9.324;2023-10-31T15:03:17;13.40;88.80
17452;DHT22;8843;48.838;9.324;2023-10-31T15:05:44;13.40;90.20
17452;DHT22;8843;48.838;9.324;2023-10-31T15:08:11;13.40;89.20
17452;DHT22;8843;48.838;9.324;2023-10-31T15:10:38;13.40;89.80
17452;DHT22;8843;48.838;9.324;2023-10-31T15:13:05;13.40;89.40
17452;DHT22;8843;48.838;9.324;2023-10-31T15:15:32;13.40;89.30
17452;DHT22;8843;48.838;9.324;2023-10-31T15:17:59;13.40;89.30
17452;DHT22;8843;48.838;9.324;2023-10-31T15:20:28;13.40;89.30
17452;DHT22;8843;48.838;9.324;2023-10-31T15:22:55;13.40;89.30
17452;DHT22;8843;48.838;9.324;2023-10-31T15:25:22;13.40;89.20
17452;DHT22;8843;48.838;9.324;2023-10-31T15:27:48;13.40;89.40
17452;DHT22;8843;48.838;9.324;2023-10-31T15:30:15;13.40;89.20
17452;DHT22;8843;48.838;9.324;2023-10-31T15:32:43;13.40;89.20
17452;DHT22;8843;48.838;9.324;2023-10-31T15:35:10;13.40;89.20
17452;DHT22;8843;48.838;9.324;2023-10-31T15:37:38;13.40;89.20
17452;DHT22;8843;48.838;9.324;2023-10-31T15:40:07;13.30;89.70
17452;DHT22;8843;48.838;9.324;2023-10-31T15:42:34;13.80;90.90
17452;DHT22;8843;48.838;9.324;2023-10-31T15:45:01;13.70;90.30
17452;DHT22;8843;48.838;9.324;2023-10-31T15:47:28;13.90;90.70